sensor_id;sensor_type;location;lat;lon;timestamp;temperature;humidity
19206;DHT22;59358;52.134;5.596;2023-02-01T00:00:51;4.90;99.90
19206;DHT22;59358;52.134;5.596;2023-02-01T00:03:18;5.00;99.90
19206;DHT22;59358;52.134;5.596;2023-02-01T00:05:54;5.00;99.90
19206;DHT22;59358;52.134;5.596;2023-02-01T00:08:23;5.00;99.90
19206;DHT22;59358;52.134;5.596;2023-02-01T00:10:58;5.00;99.90
19206;DHT22;59358;52.134;5.596;2023-02-01T00:13:25;5.10;99.90
19206;DHT22;59358;52.134;5.596;2023-02-01T00:15:53;5.10;99.90
19206;DHT22;59358;52.134;5.596;2023-02-01T00:18:20;5.10;99.90
19206;DHT22;59358;52.134;5.596;2023-02-01T00:20:47;5.10;99.90
19206;DHT22;59358;52.134;5.596;2023-02-01T00:23:14;5.10;99.90
19206;DHT22;59358;52.134;5.596;2023-02-01T00:25:42;5.20;99.90
19206;DHT22;59358;52.134;5.596;2023-02-01T00:28:09;5.20;99.90
19206;DHT22;59358;52.134;5.596;2023-02-01T00:30:36;5.30;99.90
19206;DHT22;59358;52.134;5.596;2023-02-01T00:33:03;5.30;99.90
19206;DHT22;59358;52.134;5.596;2023-02-01T00:35:29;5.30;99.90
19206;DHT22;59358;52.134;5.596;2023-02-01T00:37:56;5.40;99.90
19206;DHT22;59358;52.134;5.596;2023-02-01T00:40:24;5.40;99.90
19206;DHT22;59358;52.134;5.596;2023-02-01T00:42:52;5.40;99.90
19206;DHT22;59358;52.134;5.596;2023-02-01T00:45:20;5.50;99.90
19206;DHT22;59358;52.134;5.596;2023-02-01T00:47:46;5.50;99.90
19206;DHT22;59358;52.134;5.596;2023-02-01T00:50:14;5.50;99.90
19206;DHT22;59358;52.134;5.596;2023-02-01T00:52:41;5.50;99.90
19206;DHT22;59358;52.134;5.596;2023-02-01T00:55:08;5.50;99.90
19206;DHT22;59358;52.134;5.596;2023-02-01T00:57:35;5.40;99.90
19206;DHT22;59358;52.134;5.596;2023-02-01T01:00:04;5.40;99.90
19206;DHT22;59358;52.134;5.596;2023-02-01T01:02:31;5.40;99.90
19206;DHT22;59358;52.134;5.596;2023-02-01T01:04:58;5.50;99.90
19206;DHT22;59358;52.134;5.596;2023-02-01T01:07:24;5.50;99.90
19206;DHT22;59358;52.134;5.596;2023-02-01T01:09:51;5.60;99.90
19206;DHT22;59358;52.134;5.596;2023-02-01T01:12:18;5.70;99.90
19206;DHT22;59358;52.134;5.596;2023-02-01T01:14:45;5.70;99.90
19206;DHT22;59358;52.134;5.596;2023-02-01T01:17:13;5.80;99.90
19206;DHT22;59358;52.134;5.596;2023-02-01T01:19:40;5.80;99.90
19206;DHT22;59358;52.134;5.596;2023-02-01T01:22:07;5.80;99.90
19206;DHT22;59358;52.134;5.596;2023-02-01T01:24:34;5.80;99.90
19206;DHT22;59358;52.134;5.596;2023-02-01T01:27:00;5.80;99.90
19206;DHT22;59358;52.134;5.596;2023-02-01T01:29:28;5.80;99.90
19206;DHT22;59358;52.134;5.596;2023-02-01T01:31:55;5.80;99.90
19206;DHT22;59358;52.134;5.596;2023-02-01T01:34:23;5.90;99.90
19206;DHT22;59358;52.134;5.596;2023-02-01T01:36:50;6.00;99.90
19206;DHT22;59358;52.134;5.596;2023-02-01T01:39:17;5.90;99.90
19206;DHT22;59358;52.134;5.596;2023-02-01T01:41:43;6.10;99.90
19206;DHT22;59358;52.134;5.596;2023-02-01T01:47:10;6.10;99.90
19206;DHT22;59358;52.134;5.596;2023-02-01T01:49:39;6.30;99.90
19206;DHT22;59358;52.134;5.596;2023-02-01T01:52:06;6.30;99.90
19206;DHT22;59358;52.134;5.596;2023-02-01T01:54:36;6.40;99.90
19206;DHT22;59358;52.134;5.596;2023-02-01T01:57:06;6.40;99.90
19206;DHT22;59358;52.134;5.596;2023-02-01T01:59:35;6.50;99.90
19206;DHT22;59358;52.134;5.596;2023-02-01T02:02:02;6.50;99.90
19206;DHT22;59358;52.134;5.596;2023-02-01T02:04:29;6.60;99.90
19206;DHT22;59358;52.134;5.596;2023-02-01T02:07:01;6.60;99.90
19206;DHT22;59358;52.134;5.596;2023-02-01T02:09:32;6.70;99.90
19206;DHT22;59358;52.134;5.596;2023-02-01T02:11:59;6.70;99.90
19206;DHT22;59358;52.134;5.596;2023-02-01T02:14:26;6.70;99.90
19206;DHT22;59358;52.134;5.596;2023-02-01T02:17:15;6.80;99.90
19206;DHT22;59358;52.134;5.596;2023-02-01T02:23:05;6.80;99.90
19206;DHT22;59358;52.134;5.596;2023-02-01T02:28:55;6.90;99.90
19206;DHT22;59358;52.134;5.596;2023-02-01T02:31:40;6.90;99.90
19206;DHT22;59358;52.134;5.596;2023-02-01T02:34:18;6.90;99.90
19206;DHT22;59358;52.134;5.596;2023-02-01T02:36:54;6.90;99.90
19206;DHT22;59358;52.134;5.596;2023-02-01T02:39:30;6.90;99.90
19206;DHT22;59358;52.134;5.596;2023-02-01T02:42:02;6.90;99.90
19206;DHT22;59358;52.134;5.596;2023-02-01T02:44:55;7.00;99.90
19206;DHT22;59358;52.134;5.596;2023-02-01T02:47:44;7.00;99.90
19206;DHT22;59358;52.134;5.596;2023-02-01T02:50:24;7.00;99.90
19206;DHT22;59358;52.134;5.596;2023-02-01T02:53:23;7.10;99.90
19206;DHT22;59358;52.134;5.596;2023-02-01T02:56:12;7.10;99.90
19206;DHT22;59358;52.134;5.596;2023-02-01T02:58:57;7.10;99.90
19206;DHT22;59358;52.134;5.596;2023-02-01T03:01:43;7.10;99.90
19206;DHT22;59358;52.134;5.596;2023-02-01T03:04:28;7.10;99.90
19206;DHT22;59358;52.134;5.596;2023-02-01T03:06:56;7.10;99.90
19206;DHT22;59358;52.134;5.596;2023-02-01T03:09:26;7.10;99.90
19206;DHT22;59358;52.134;5.596;2023-02-01T03:12:00;7.10;99.90
19206;DHT22;59358;52.134;5.596;2023-02-01T03:14:47;7.00;99.90
19206;DHT22;59358;52.134;5.596;2023-02-01T03:17:19;7.00;99.90
19206;DHT22;59358;52.134;5.596;2023-02-01T03:19:50;7.00;99.90
19206;DHT22;59358;52.134;5.596;2023-02-01T03:22:21;7.00;99.90
19206;DHT22;59358;52.134;5.596;2023-02-01T03:24:51;6.90;99.90
19206;DHT22;59358;52.134;5.596;2023-02-01T03:27:22;7.00;99.90
19206;DHT22;59358;52.134;5.596;2023-02-01T03:29:56;6.90;99.90
19206;DHT22;59358;52.134;5.596;2023-02-01T03:32:25;6.90;99.90
19206;DHT22;59358;52.134;5.596;2023-02-01T03:34:52;6.90;99.90
19206;DHT22;59358;52.134;5.596;2023-02-01T03:37:24;6.80;99.90
19206;DHT22;59358;52.134;5.596;2023-02-01T03:39:57;6.70;99.90
19206;DHT22;59358;52.134;5.596;2023-02-01T03:42:30;6.80;99.90
19206;DHT22;59358;52.134;5.596;2023-02-01T03:45:06;6.80;99.90
19206;DHT22;59358;52.134;5.596;2023-02-01T03:47:36;6.70;99.90
19206;DHT22;59358;52.134;5.596;2023-02-01T03:50:06;6.70;99.90
19206;DHT22;59358;52.134;5.596;2023-02-01T03:52:39;6.70;99.90
19206;DHT22;59358;52.134;5.596;2023-02-01T03:55:08;6.60;99.90
19206;DHT22;59358;52.134;5.596;2023-02-01T03:57:40;6.60;99.90
19206;DHT22;59358;52.134;5.596;2023-02-01T04:00:19;6.60;99.90
19206;DHT22;59358;52.134;5.596;2023-02-01T04:02:47;6.70;99.90
19206;DHT22;59358;52.134;5.596;2023-02-01T04:05:14;6.70;99.90
19206;DHT22;59358;52.134;5.596;2023-02-01T04:07:42;6.70;99.90
19206;DHT22;59358;52.134;5.596;2023-02-01T04:10:10;6.70;99.90
19206;DHT22;59358;52.134;5.596;2023-02-01T04:12:37;6.70;99.90
19206;DHT22;59358;52.134;5.596;2023-02-01T04:15:08;6.70;99.90
19206;DHT22;59358;52.134;5.596;2023-02-01T04:17:35;6.80;99.90
19206;DHT22;59358;52.134;5.596;2023-02-01T04:20:02;6.80;99.90
19206;DHT22;59358;52.134;5.596;2023-02-01T04:22:30;6.90;99.90
19206;DHT22;59358;52.134;5.596;2023-02-01T04:24:58;7.00;99.90
19206;DHT22;59358;52.134;5.596;2023-02-01T04:27:25;7.00;99.90
19206;DHT22;59358;52.134;5.596;2023-02-01T04:29:52;7.00;99.90
19206;DHT22;59358;52.134;5.596;2023-02-01T04:32:19;7.00;99.90
19206;DHT22;59358;52.134;5.596;2023-02-01T04:34:46;7.00;99.90
19206;DHT22;59358;52.134;5.596;2023-02-01T04:37:13;7.00;99.90
19206;DHT22;59358;52.134;5.596;2023-02-01T04:39:40;6.90;99.90
19206;DHT22;59358;52.134;5.596;2023-02-01T04:42:08;6.90;99.90
19206;DHT22;59358;52.134;5.596;2023-02-01T04:44:35;7.00;99.90
19206;DHT22;59358;52.134;5.596;2023-02-01T04:47:05;6.90;99.90
19206;DHT22;59358;52.134;5.596;2023-02-01T04:49:31;6.90;99.90
19206;DHT22;59358;52.134;5.596;2023-02-01T04:51:59;6.90;99.90
19206;DHT22;59358;52.134;5.596;2023-02-01T04:54:26;6.90;99.90
19206;DHT22;59358;52.134;5.596;2023-02-01T04:56:53;7.00;99.90
19206;DHT22;59358;52.134;5.596;2023-02-01T04:59:21;7.10;99.90
19206;DHT22;59358;52.134;5.596;2023-02-01T05:01:48;7.00;99.90
19206;DHT22;59358;52.134;5.596;2023-02-01T05:04:14;6.90;99.90
19206;DHT22;59358;52.134;5.596;2023-02-01T05:06:44;7.00;99.90
19206;DHT22;59358;52.134;5.596;2023-02-01T05:09:10;6.80;99.90
19206;DHT22;59358;52.134;5.596;2023-02-01T05:11:37;6.90;99.90
19206;DHT22;59358;52.134;5.596;2023-02-01T05:14:23;7.10;99.90
19206;DHT22;59358;52.134;5.596;2023-02-01T05:16:50;7.00;99.90
19206;DHT22;59358;52.134;5.596;2023-02-01T05:19:17;7.00;99.90
19206;DHT22;59358;52.134;5.596;2023-02-01T05:21:44;7.00;99.90
19206;DHT22;59358;52.134;5.596;2023-02-01T05:24:11;7.00;99.90
19206;DHT22;59358;52.134;5.596;2023-02-01T05:26:40;7.00;99.90
19206;DHT22;59358;52.134;5.596;2023-02-01T05:29:09;7.00;99.90
19206;DHT22;59358;52.134;5.596;2023-02-01T05:31:38;7.00;99.90
19206;DHT22;59358;52.134;5.596;2023-02-01T05:34:05;7.00;99.90
19206;DHT22;59358;52.134;5.596;2023-02-01T05:36:32;7.00;99.90
19206;DHT22;59358;52.134;5.596;2023-02-01T05:38:59;7.00;99.90
19206;DHT22;59358;52.134;5.596;2023-02-01T05:41:26;7.00;99.90
19206;DHT22;59358;52.134;5.596;2023-02-01T05:43:53;6.90;99.90
19206;DHT22;59358;52.134;5.596;2023-02-01T05:46:20;7.00;99.90
19206;DHT22;59358;52.134;5.596;2023-02-01T05:48:48;7.00;99.90
19206;DHT22;59358;52.134;5.596;2023-02-01T05:51:17;6.90;99.90
19206;DHT22;59358;52.134;5.596;2023-02-01T05:53:44;7.00;99.90
19206;DHT22;59358;52.134;5.596;2023-02-01T05:56:11;7.10;99.90
19206;DHT22;59358;52.134;5.596;2023-02-01T05:58:38;7.00;99.90
19206;DHT22;59358;52.134;5.596;2023-02-01T06:01:05;7.10;99.90
19206;DHT22;59358;52.134;5.596;2023-02-01T06:03:38;7.00;99.90
19206;DHT22;59358;52.134;5.596;2023-02-01T06:06:23;7.10;99.90
19206;DHT22;59358;52.134;5.596;2023-02-01T06:08:50;7.10;99.90
19206;DHT22;59358;52.134;5.596;2023-02-01T06:11:22;7.10;99.90
19206;DHT22;59358;52.134;5.596;2023-02-01T06:14:08;7.20;99.90
19206;DHT22;59358;52.134;5.596;2023-02-01T06:16:35;7.10;99.90
19206;DHT22;59358;52.134;5.596;2023-02-01T06:19:02;7.00;99.90
19206;DHT22;59358;52.134;5.596;2023-02-01T06:21:30;7.00;99.90
19206;DHT22;59358;52.134;5.596;2023-02-01T06:23:57;7.00;99.90
19206;DHT22;59358;52.134;5.596;2023-02-01T06:26:24;7.00;99.90
19206;DHT22;59358;52.134;5.596;2023-02-01T06:28:51;7.00;99.90
19206;DHT22;59358;52.134;5.596;2023-02-01T06:31:18;7.10;99.90
19206;DHT22;59358;52.134;5.596;2023-02-01T06:33:45;7.00;99.90
19206;DHT22;59358;52.134;5.596;2023-02-01T06:36:14;7.00;99.90
19206;DHT22;59358;52.134;5.596;2023-02-01T06:38:43;7.00;99.90
19206;DHT22;59358;52.134;5.596;2023-02-01T06:41:09;7.00;99.90
19206;DHT22;59358;52.134;5.596;2023-02-01T06:43:36;7.00;99.90
19206;DHT22;59358;52.134;5.596;2023-02-01T06:46:05;6.90;99.90
19206;DHT22;59358;52.134;5.596;2023-02-01T06:48:32;6.90;99.90
19206;DHT22;59358;52.134;5.596;2023-02-01T06:50:59;6.80;99.90
19206;DHT22;59358;52.134;5.596;2023-02-01T06:53:26;6.70;99.90
19206;DHT22;59358;52.134;5.596;2023-02-01T06:55:56;6.70;99.90
19206;DHT22;59358;52.134;5.596;2023-02-01T06:58:24;6.70;99.90
19206;DHT22;59358;52.134;5.596;2023-02-01T07:00:54;6.70;99.90
19206;DHT22;59358;52.134;5.596;2023-02-01T07:03:21;6.70;99.90
19206;DHT22;59358;52.134;5.596;2023-02-01T07:05:48;6.60;99.90
19206;DHT22;59358;52.134;5.596;2023-02-01T07:08:14;6.60;99.90
19206;DHT22;59358;52.134;5.596;2023-02-01T07:10:41;6.50;99.90
19206;DHT22;59358;52.134;5.596;2023-02-01T07:13:10;6.50;99.90
19206;DHT22;59358;52.134;5.596;2023-02-01T07:15:37;6.50;99.90
19206;DHT22;59358;52.134;5.596;2023-02-01T07:18:04;6.50;99.90
19206;DHT22;59358;52.134;5.596;2023-02-01T07:20:30;6.50;99.90
19206;DHT22;59358;52.134;5.596;2023-02-01T07:22:58;6.50;99.90
19206;DHT22;59358;52.134;5.596;2023-02-01T07:25:25;6.50;99.90
19206;DHT22;59358;52.134;5.596;2023-02-01T07:27:51;6.50;99.90
19206;DHT22;59358;52.134;5.596;2023-02-01T07:30:20;6.50;99.90
19206;DHT22;59358;52.134;5.596;2023-02-01T07:32:47;6.60;99.90
19206;DHT22;59358;52.134;5.596;2023-02-01T07:35:14;6.60;99.90
19206;DHT22;59358;52.134;5.596;2023-02-01T07:37:40;6.60;99.90
19206;DHT22;59358;52.134;5.596;2023-02-01T07:40:14;6.60;99.90
19206;DHT22;59358;52.134;5.596;2023-02-01T07:42:40;6.50;99.90
19206;DHT22;59358;52.134;5.596;2023-02-01T07:45:08;6.50;99.90
19206;DHT22;59358;52.134;5.596;2023-02-01T07:47:36;6.60;99.90
19206;DHT22;59358;52.134;5.596;2023-02-01T07:50:03;6.60;99.90
19206;DHT22;59358;52.134;5.596;2023-02-01T07:52:30;6.60;99.90
19206;DHT22;59358;52.134;5.596;2023-02-01T07:54:58;6.60;99.90
19206;DHT22;59358;52.134;5.596;2023-02-01T07:57:25;6.60;99.90
19206;DHT22;59358;52.134;5.596;2023-02-01T07:59:52;6.70;99.90
19206;DHT22;59358;52.134;5.596;2023-02-01T08:02:38;6.70;99.90
19206;DHT22;59358;52.134;5.596;2023-02-01T08:05:06;6.70;99.90
19206;DHT22;59358;52.134;5.596;2023-02-01T08:07:33;6.80;99.90
19206;DHT22;59358;52.134;5.596;2023-02-01T08:10:00;6.80;99.90
19206;DHT22;59358;52.134;5.596;2023-02-01T08:12:27;6.70;99.90
19206;DHT22;59358;52.134;5.596;2023-02-01T08:14:54;6.80;99.90
19206;DHT22;59358;52.134;5.596;2023-02-01T08:17:22;6.80;99.90
19206;DHT22;59358;52.134;5.596;2023-02-01T08:19:50;6.80;99.90
19206;DHT22;59358;52.134;5.596;2023-02-01T08:22:17;6.80;99.90
19206;DHT22;59358;52.134;5.596;2023-02-01T08:24:44;6.80;99.90
19206;DHT22;59358;52.134;5.596;2023-02-01T08:27:10;6.90;99.90
19206;DHT22;59358;52.134;5.596;2023-02-01T08:29:38;7.00;99.90
19206;DHT22;59358;52.134;5.596;2023-02-01T08:32:05;7.10;99.90
19206;DHT22;59358;52.134;5.596;2023-02-01T08:34:32;7.10;99.90
19206;DHT22;59358;52.134;5.596;2023-02-01T08:37:00;7.20;99.90
19206;DHT22;59358;52.134;5.596;2023-02-01T08:39:27;7.20;99.90
19206;DHT22;59358;52.134;5.596;2023-02-01T08:41:54;7.20;99.90
19206;DHT22;59358;52.134;5.596;2023-02-01T08:44:44;7.40;99.90
19206;DHT22;59358;52.134;5.596;2023-02-01T08:47:10;7.40;99.90
19206;DHT22;59358;52.134;5.596;2023-02-01T08:49:37;7.30;99.90
19206;DHT22;59358;52.134;5.596;2023-02-01T08:52:06;7.30;99.90
19206;DHT22;59358;52.134;5.596;2023-02-01T08:54:32;7.40;99.90
19206;DHT22;59358;52.134;5.596;2023-02-01T08:56:59;7.30;99.90
19206;DHT22;59358;52.134;5.596;2023-02-01T08:59:26;7.40;99.90
19206;DHT22;59358;52.134;5.596;2023-02-01T09:01:53;7.40;99.90
19206;DHT22;59358;52.134;5.596;2023-02-01T09:04:21;7.40;99.90
19206;DHT22;59358;52.134;5.596;2023-02-01T09:06:47;7.50;99.90
19206;DHT22;59358;52.134;5.596;2023-02-01T09:09:15;7.50;99.90
19206;DHT22;59358;52.134;5.596;2023-02-01T09:11:44;7.60;99.90
19206;DHT22;59358;52.134;5.596;2023-02-01T09:14:14;7.60;99.90
19206;DHT22;59358;52.134;5.596;2023-02-01T09:16:42;7.70;99.90
19206;DHT22;59358;52.134;5.596;2023-02-01T09:19:08;7.80;99.90
19206;DHT22;59358;52.134;5.596;2023-02-01T09:21:36;7.80;99.90
19206;DHT22;59358;52.134;5.596;2023-02-01T09:24:03;8.00;99.90
19206;DHT22;59358;52.134;5.596;2023-02-01T09:26:32;8.20;99.90
19206;DHT22;59358;52.134;5.596;2023-02-01T09:29:00;8.20;99.90
19206;DHT22;59358;52.134;5.596;2023-02-01T09:31:27;8.20;99.90
19206;DHT22;59358;52.134;5.596;2023-02-01T09:33:54;8.30;99.90
19206;DHT22;59358;52.134;5.596;2023-02-01T09:36:21;8.30;99.90
19206;DHT22;59358;52.134;5.596;2023-02-01T09:38:49;8.30;99.90
19206;DHT22;59358;52.134;5.596;2023-02-01T09:41:27;8.20;99.90
19206;DHT22;59358;52.134;5.596;2023-02-01T09:44:10;8.20;99.90
19206;DHT22;59358;52.134;5.596;2023-02-01T09:46:38;8.10;99.90
19206;DHT22;59358;52.134;5.596;2023-02-01T09:49:10;8.10;99.90
19206;DHT22;59358;52.134;5.596;2023-02-01T09:51:42;8.00;99.90
19206;DHT22;59358;52.134;5.596;2023-02-01T09:54:14;8.10;99.90
19206;DHT22;59358;52.134;5.596;2023-02-01T09:56:45;8.10;99.90
19206;DHT22;59358;52.134;5.596;2023-02-01T09:59:23;8.10;99.90
19206;DHT22;59358;52.134;5.596;2023-02-01T10:01:53;8.00;99.90
19206;DHT22;59358;52.134;5.596;2023-02-01T10:04:20;8.00;99.90
19206;DHT22;59358;52.134;5.596;2023-02-01T10:07:02;8.00;99.90
19206;DHT22;59358;52.134;5.596;2023-02-01T10:09:45;8.00;99.90
19206;DHT22;59358;52.134;5.596;2023-02-01T10:15:33;7.90;99.90
19206;DHT22;59358;52.134;5.596;2023-02-01T10:18:14;7.90;99.90
19206;DHT22;59358;52.134;5.596;2023-02-01T10:20:56;7.90;99.90
19206;DHT22;59358;52.134;5.596;2023-02-01T10:23:43;7.80;99.90
19206;DHT22;59358;52.134;5.596;2023-02-01T10:26:18;7.80;99.90
19206;DHT22;59358;52.134;5.596;2023-02-01T10:28:48;7.80;99.90
19206;DHT22;59358;52.134;5.596;2023-02-01T10:31:17;7.70;99.90
19206;DHT22;59358;52.134;5.596;2023-02-01T10:33:46;7.60;99.90
19206;DHT22;59358;52.134;5.596;2023-02-01T10:36:16;7.50;99.90
19206;DHT22;59358;52.134;5.596;2023-02-01T10:38:46;7.30;99.90
19206;DHT22;59358;52.134;5.596;2023-02-01T10:41:15;7.10;99.90
19206;DHT22;59358;52.134;5.596;2023-02-01T10:43:43;7.10;99.90
19206;DHT22;59358;52.134;5.596;2023-02-01T10:46:11;6.90;99.90
19206;DHT22;59358;52.134;5.596;2023-02-01T10:48:39;7.00;99.90
19206;DHT22;59358;52.134;5.596;2023-02-01T10:51:12;7.00;99.90
19206;DHT22;59358;52.134;5.596;2023-02-01T10:53:44;7.00;99.90
19206;DHT22;59358;52.134;5.596;2023-02-01T10:56:13;7.20;99.90
19206;DHT22;59358;52.134;5.596;2023-02-01T10:58:44;7.30;99.90
19206;DHT22;59358;52.134;5.596;2023-02-01T11:01:17;7.30;99.90
19206;DHT22;59358;52.134;5.596;2023-02-01T11:03:52;7.30;99.90
19206;DHT22;59358;52.134;5.596;2023-02-01T11:06:25;7.40;99.90
19206;DHT22;59358;52.134;5.596;2023-02-01T11:08:54;7.40;99.90
19206;DHT22;59358;52.134;5.596;2023-02-01T11:11:22;7.50;99.90
19206;DHT22;59358;52.134;5.596;2023-02-01T11:13:53;7.60;99.90
19206;DHT22;59358;52.134;5.596;2023-02-01T11:16:20;7.70;99.90
19206;DHT22;59358;52.134;5.596;2023-02-01T11:18:56;7.70;99.90
19206;DHT22;59358;52.134;5.596;2023-02-01T11:21:24;7.70;99.90
19206;DHT22;59358;52.134;5.596;2023-02-01T11:23:51;7.70;99.90
19206;DHT22;59358;52.134;5.596;2023-02-01T11:26:21;7.70;99.90
19206;DHT22;59358;52.134;5.596;2023-02-01T11:28:54;7.70;99.90
19206;DHT22;59358;52.134;5.596;2023-02-01T11:31:24;7.70;99.90
19206;DHT22;59358;52.134;5.596;2023-02-01T11:33:55;7.80;99.90
19206;DHT22;59358;52.134;5.596;2023-02-01T11:36:26;7.80;99.90
19206;DHT22;59358;52.134;5.596;2023-02-01T11:39:06;7.80;99.90
19206;DHT22;59358;52.134;5.596;2023-02-01T11:41:35;7.90;99.90
19206;DHT22;59358;52.134;5.596;2023-02-01T11:44:19;7.90;99.90
19206;DHT22;59358;52.134;5.596;2023-02-01T11:46:46;8.00;99.90
19206;DHT22;59358;52.134;5.596;2023-02-01T11:49:25;8.10;99.90
19206;DHT22;59358;52.134;5.596;2023-02-01T11:52:07;8.20;99.90
19206;DHT22;59358;52.134;5.596;2023-02-01T11:54:56;8.30;99.90
19206;DHT22;59358;52.134;5.596;2023-02-01T11:57:38;8.20;99.90
19206;DHT22;59358;52.134;5.596;2023-02-01T12:00:32;8.20;99.90
19206;DHT22;59358;52.134;5.596;2023-02-01T12:03:11;8.30;99.90
19206;DHT22;59358;52.134;5.596;2023-02-01T12:05:50;8.30;99.90
19206;DHT22;59358;52.134;5.596;2023-02-01T12:11:32;8.20;99.90
19206;DHT22;59358;52.134;5.596;2023-02-01T12:14:10;8.20;99.90
19206;DHT22;59358;52.134;5.596;2023-02-01T12:16:48;8.30;99.90
19206;DHT22;59358;52.134;5.596;2023-02-01T12:19:33;8.30;99.90
19206;DHT22;59358;52.134;5.596;2023-02-01T12:22:18;8.40;99.90
19206;DHT22;59358;52.134;5.596;2023-02-01T12:25:14;8.50;99.90
19206;DHT22;59358;52.134;5.596;2023-02-01T12:31:01;8.60;99.90
19206;DHT22;59358;52.134;5.596;2023-02-01T12:33:43;8.60;99.90
19206;DHT22;59358;52.134;5.596;2023-02-01T12:36:18;8.50;99.90
19206;DHT22;59358;52.134;5.596;2023-02-01T12:38:53;8.60;99.90
19206;DHT22;59358;52.134;5.596;2023-02-01T12:41:44;8.60;99.90
19206;DHT22;59358;52.134;5.596;2023-02-01T12:44:24;8.50;99.90
19206;DHT22;59358;52.134;5.596;2023-02-01T12:46:54;8.50;99.90
19206;DHT22;59358;52.134;5.596;2023-02-01T12:49:29;8.40;99.90
19206;DHT22;59358;52.134;5.596;2023-02-01T12:52:01;8.40;99.90
19206;DHT22;59358;52.134;5.596;2023-02-01T12:54:34;8.50;99.90
19206;DHT22;59358;52.134;5.596;2023-02-01T12:57:03;8.50;99.90
19206;DHT22;59358;52.134;5.596;2023-02-01T12:59:35;8.50;99.90
19206;DHT22;59358;52.134;5.596;2023-02-01T13:02:12;8.40;99.90
19206;DHT22;59358;52.134;5.596;2023-02-01T13:04:49;8.40;99.90
19206;DHT22;59358;52.134;5.596;2023-02-01T13:07:22;8.30;99.90
19206;DHT22;59358;52.134;5.596;2023-02-01T13:09:56;8.40;99.90
19206;DHT22;59358;52.134;5.596;2023-02-01T13:12:28;8.30;99.90
19206;DHT22;59358;52.134;5.596;2023-02-01T13:15:03;8.30;99.90
19206;DHT22;59358;52.134;5.596;2023-02-01T13:17:32;8.30;99.90
19206;DHT22;59358;52.134;5.596;2023-02-01T13:20:03;8.30;99.90
19206;DHT22;59358;52.134;5.596;2023-02-01T13:22:32;8.30;99.90
19206;DHT22;59358;52.134;5.596;2023-02-01T13:25:04;8.30;99.90
19206;DHT22;59358;52.134;5.596;2023-02-01T13:27:37;8.30;99.90
19206;DHT22;59358;52.134;5.596;2023-02-01T13:30:10;8.30;99.90
19206;DHT22;59358;52.134;5.596;2023-02-01T13:33:01;8.30;99.90
19206;DHT22;59358;52.134;5.596;2023-02-01T13:35:53;8.40;99.90
19206;DHT22;59358;52.134;5.596;2023-02-01T13:41:28;8.40;99.90
19206;DHT22;59358;52.134;5.596;2023-02-01T13:43:58;8.40;99.90
19206;DHT22;59358;52.134;5.596;2023-02-01T13:46:26;8.40;99.90
19206;DHT22;59358;52.134;5.596;2023-02-01T13:48:55;8.40;99.90
19206;DHT22;59358;52.134;5.596;2023-02-01T13:51:41;8.40;99.90
19206;DHT22;59358;52.134;5.596;2023-02-01T13:54:28;8.50;99.90
19206;DHT22;59358;52.134;5.596;2023-02-01T13:56:57;8.50;99.90
19206;DHT22;59358;52.134;5.596;2023-02-01T13:59:50;8.60;99.90
19206;DHT22;59358;52.134;5.596;2023-02-01T14:02:36;8.50;99.90
19206;DHT22;59358;52.134;5.596;2023-02-01T14:05:04;8.60;99.90
19206;DHT22;59358;52.134;5.596;2023-02-01T14:07:31;8.60;99.90
19206;DHT22;59358;52.134;5.596;2023-02-01T14:09:58;8.60;99.90
19206;DHT22;59358;52.134;5.596;2023-02-01T14:12:46;8.70;99.90
19206;DHT22;59358;52.134;5.596;2023-02-01T14:15:20;8.70;99.90
19206;DHT22;59358;52.134;5.596;2023-02-01T14:17:49;8.70;99.90
19206;DHT22;59358;52.134;5.596;2023-02-01T14:20:44;8.70;99.90
19206;DHT22;59358;52.134;5.596;2023-02-01T14:23:23;8.60;99.90
19206;DHT22;59358;52.134;5.596;2023-02-01T14:26:08;8.70;99.90
19206;DHT22;59358;52.134;5.596;2023-02-01T14:28:41;8.60;99.90
19206;DHT22;59358;52.134;5.596;2023-02-01T14:31:40;8.60;99.90
19206;DHT22;59358;52.134;5.596;2023-02-01T14:34:18;8.70;99.90
19206;DHT22;59358;52.134;5.596;2023-02-01T14:36:50;8.60;99.90
19206;DHT22;59358;52.134;5.596;2023-02-01T14:39:20;8.60;99.90
19206;DHT22;59358;52.134;5.596;2023-02-01T14:41:54;8.60;99.90
19206;DHT22;59358;52.134;5.596;2023-02-01T14:44:31;8.60;99.90
19206;DHT22;59358;52.134;5.596;2023-02-01T14:50:04;8.70;99.90
19206;DHT22;59358;52.134;5.596;2023-02-01T14:52:36;8.70;99.90
19206;DHT22;59358;52.134;5.596;2023-02-01T14:55:11;8.70;99.90
19206;DHT22;59358;52.134;5.596;2023-02-01T14:57:41;8.70;99.90
19206;DHT22;59358;52.134;5.596;2023-02-01T15:00:21;8.70;99.90
19206;DHT22;59358;52.134;5.596;2023-02-01T15:02:50;8.60;99.90
19206;DHT22;59358;52.134;5.596;2023-02-01T15:05:25;8.50;99.90
19206;DHT22;59358;52.134;5.596;2023-02-01T15:07:52;8.30;99.90
19206;DHT22;59358;52.134;5.596;2023-02-01T15:10:20;8.00;99.90
19206;DHT22;59358;52.134;5.596;2023-02-01T15:12:47;7.60;99.90
19206;DHT22;59358;52.134;5.596;2023-02-01T15:15:19;7.20;99.90
19206;DHT22;59358;52.134;5.596;2023-02-01T15:17:51;6.80;99.90
19206;DHT22;59358;52.134;5.596;2023-02-01T15:20:20;6.60;99.90
19206;DHT22;59358;52.134;5.596;2023-02-01T15:22:56;6.50;99.90
19206;DHT22;59358;52.134;5.596;2023-02-01T15:25:26;6.40;99.90
19206;DHT22;59358;52.134;5.596;2023-02-01T15:27:56;6.40;99.90
19206;DHT22;59358;52.134;5.596;2023-02-01T15:30:26;6.40;99.90
19206;DHT22;59358;52.134;5.596;2023-02-01T15:33:05;6.50;99.90
19206;DHT22;59358;52.134;5.596;2023-02-01T15:35:39;6.50;99.90
19206;DHT22;59358;52.134;5.596;2023-02-01T15:38:30;6.60;99.90
19206;DHT22;59358;52.134;5.596;2023-02-01T15:40:59;6.80;99.90
19206;DHT22;59358;52.134;5.596;2023-02-01T15:43:28;7.10;99.90
19206;DHT22;59358;52.134;5.596;2023-02-01T15:45:58;7.30;99.90
19206;DHT22;59358;52.134;5.596;2023-02-01T15:48:27;7.30;99.90
19206;DHT22;59358;52.134;5.596;2023-02-01T15:50:55;7.50;99.90
19206;DHT22;59358;52.134;5.596;2023-02-01T15:53:24;7.60;99.90
19206;DHT22;59358;52.134;5.596;2023-02-01T15:55:58;7.70;99.90
19206;DHT22;59358;52.134;5.596;2023-02-01T15:58:26;7.90;99.90
19206;DHT22;59358;52.134;5.596;2023-02-01T16:00:57;7.90;99.90
19206;DHT22;59358;52.134;5.596;2023-02-01T16:03:28;7.90;99.90
19206;DHT22;59358;52.134;5.596;2023-02-01T16:06:00;7.90;99.90
19206;DHT22;59358;52.134;5.596;2023-02-01T16:08:29;8.00;99.90
19206;DHT22;59358;52.134;5.596;2023-02-01T16:11:01;8.00;99.90
19206;DHT22;59358;52.134;5.596;2023-02-01T16:13:28;8.00;99.90
19206;DHT22;59358;52.134;5.596;2023-02-01T16:15:56;8.00;99.90
19206;DHT22;59358;52.134;5.596;2023-02-01T16:18:23;8.00;99.90
19206;DHT22;59358;52.134;5.596;2023-02-01T16:20:50;8.00;99.90
19206;DHT22;59358;52.134;5.596;2023-02-01T16:23:17;8.10;99.90
19206;DHT22;59358;52.134;5.596;2023-02-01T16:25:46;8.10;99.90
19206;DHT22;59358;52.134;5.596;2023-02-01T16:28:13;8.10;99.90
19206;DHT22;59358;52.134;5.596;2023-02-01T16:30:40;8.10;99.90
19206;DHT22;59358;52.134;5.596;2023-02-01T16:33:20;8.10;99.90
19206;DHT22;59358;52.134;5.596;2023-02-01T16:35:48;8.10;99.90